sensor_id;sensor_type;location;lat;lon;timestamp;P1;durP1;ratioP1;P2;durP2;ratioP2
76115;SDS011;64847;45.778;12.802;2023-05-10T00:00:31;2.00;;;1.90;;
76115;SDS011;64847;45.778;12.802;2023-05-10T00:02:57;2.97;;;1.90;;
76115;SDS011;64847;45.778;12.802;2023-05-10T00:05:22;1.63;;;1.63;;
76115;SDS011;64847;45.778;12.802;2023-05-10T00:07:48;1.90;;;1.80;;
76115;SDS011;64847;45.778;12.802;2023-05-10T00:10:13;1.90;;;1.80;;
76115;SDS011;64847;45.778;12.802;2023-05-10T00:12:38;2.00;;;1.90;;
76115;SDS011;64847;45.778;12.802;2023-05-10T00:15:04;2.03;;;1.90;;
76115;SDS011;64847;45.778;12.802;2023-05-10T00:17:30;2.00;;;1.90;;
76115;SDS011;64847;45.778;12.802;2023-05-10T00:19:55;2.00;;;1.90;;
76115;SDS011;64847;45.778;12.802;2023-05-10T00:22:21;1.70;;;1.70;;
76115;SDS011;64847;45.778;12.802;2023-05-10T00:24:46;1.80;;;1.70;;
76115;SDS011;64847;45.778;12.802;2023-05-10T00:27:12;1.80;;;1.70;;
76115;SDS011;64847;45.778;12.802;2023-05-10T00:29:37;2.00;;;1.90;;
76115;SDS011;64847;45.778;12.802;2023-05-10T00:32:03;2.00;;;1.90;;
76115;SDS011;64847;45.778;12.802;2023-05-10T00:34:28;1.73;;;1.63;;
76115;SDS011;64847;45.778;12.802;2023-05-10T00:36:54;1.97;;;1.87;;
76115;SDS011;64847;45.778;12.802;2023-05-10T00:39:19;1.93;;;1.87;;
76115;SDS011;64847;45.778;12.802;2023-05-10T00:41:45;2.10;;;2.00;;
76115;SDS011;64847;45.778;12.802;2023-05-10T00:44:10;2.00;;;1.90;;
76115;SDS011;64847;45.778;12.802;2023-05-10T00:46:36;2.03;;;1.93;;
76115;SDS011;64847;45.778;12.802;2023-05-10T00:49:01;1.80;;;1.70;;
76115;SDS011;64847;45.778;12.802;2023-05-10T00:51:27;2.10;;;2.00;;
76115;SDS011;64847;45.778;12.802;2023-05-10T00:53:52;1.90;;;1.80;;
76115;SDS011;64847;45.778;12.802;2023-05-10T00:56:18;1.90;;;1.90;;
76115;SDS011;64847;45.778;12.802;2023-05-10T00:58:45;2.57;;;2.00;;
76115;SDS011;64847;45.778;12.802;2023-05-10T01:01:10;1.80;;;1.70;;
76115;SDS011;64847;45.778;12.802;2023-05-10T01:03:36;2.20;;;2.10;;
76115;SDS011;64847;45.778;12.802;2023-05-10T01:06:02;1.93;;;1.80;;
76115;SDS011;64847;45.778;12.802;2023-05-10T01:08:28;2.00;;;1.90;;
76115;SDS011;64847;45.778;12.802;2023-05-10T01:10:54;1.77;;;1.60;;
76115;SDS011;64847;45.778;12.802;2023-05-10T01:13:30;2.03;;;1.90;;
76115;SDS011;64847;45.778;12.802;2023-05-10T01:15:56;2.00;;;1.90;;
76115;SDS011;64847;45.778;12.802;2023-05-10T01:18:22;2.20;;;2.00;;
76115;SDS011;64847;45.778;12.802;2023-05-10T01:20:48;2.10;;;2.00;;
76115;SDS011;64847;45.778;12.802;2023-05-10T01:29:19;1.90;;;1.80;;
76115;SDS011;64847;45.778;12.802;2023-05-10T01:34:27;1.90;;;1.80;;
76115;SDS011;64847;45.778;12.802;2023-05-10T01:37:21;3.67;;;1.77;;
76115;SDS011;64847;45.778;12.802;2023-05-10T01:42:48;1.80;;;1.80;;
76115;SDS011;64847;45.778;12.802;2023-05-10T01:48:20;2.03;;;1.90;;
76115;SDS011;64847;45.778;12.802;2023-05-10T01:50:47;1.80;;;1.70;;
76115;SDS011;64847;45.778;12.802;2023-05-10T01:53:13;1.50;;;1.50;;
76115;SDS011;64847;45.778;12.802;2023-05-10T01:55:45;1.50;;;1.50;;
76115;SDS011;64847;45.778;12.802;2023-05-10T01:58:13;1.90;;;1.80;;
76115;SDS011;64847;45.778;12.802;2023-05-10T02:00:42;1.77;;;1.70;;
76115;SDS011;64847;45.778;12.802;2023-05-10T02:03:08;1.77;;;1.67;;
76115;SDS011;64847;45.778;12.802;2023-05-10T02:05:35;1.77;;;1.70;;
76115;SDS011;64847;45.778;12.802;2023-05-10T02:08:02;1.70;;;1.60;;
76115;SDS011;64847;45.778;12.802;2023-05-10T02:10:28;1.87;;;1.77;;
76115;SDS011;64847;45.778;12.802;2023-05-10T02:12:54;1.97;;;1.87;;
76115;SDS011;64847;45.778;12.802;2023-05-10T02:15:22;3.03;;;1.80;;
76115;SDS011;64847;45.778;12.802;2023-05-10T02:17:48;2.03;;;1.60;;
76115;SDS011;64847;45.778;12.802;2023-05-10T02:20:13;1.50;;;1.50;;
76115;SDS011;64847;45.778;12.802;2023-05-10T02:22:40;1.57;;;1.57;;
76115;SDS011;64847;45.778;12.802;2023-05-10T02:25:06;1.77;;;1.67;;
76115;SDS011;64847;45.778;12.802;2023-05-10T02:27:34;1.63;;;1.60;;
76115;SDS011;64847;45.778;12.802;2023-05-10T02:30:00;2.00;;;1.90;;
76115;SDS011;64847;45.778;12.802;2023-05-10T02:32:26;1.70;;;1.70;;
76115;SDS011;64847;45.778;12.802;2023-05-10T02:34:52;1.80;;;1.70;;
76115;SDS011;64847;45.778;12.802;2023-05-10T02:37:18;1.83;;;1.73;;
76115;SDS011;64847;45.778;12.802;2023-05-10T02:39:46;1.50;;;1.50;;
76115;SDS011;64847;45.778;12.802;2023-05-10T02:42:14;1.53;;;1.53;;
76115;SDS011;64847;45.778;12.802;2023-05-10T02:44:42;1.93;;;1.83;;
76115;SDS011;64847;45.778;12.802;2023-05-10T02:47:08;2.67;;;1.90;;
76115;SDS011;64847;45.778;12.802;2023-05-10T02:49:33;1.97;;;1.87;;
76115;SDS011;64847;45.778;12.802;2023-05-10T02:52:00;1.80;;;1.70;;
76115;SDS011;64847;45.778;12.802;2023-05-10T02:54:29;1.90;;;1.80;;
76115;SDS011;64847;45.778;12.802;2023-05-10T02:56:58;1.63;;;1.53;;
76115;SDS011;64847;45.778;12.802;2023-05-10T02:59:25;1.70;;;1.70;;
76115;SDS011;64847;45.778;12.802;2023-05-10T03:01:51;1.57;;;1.57;;
76115;SDS011;64847;45.778;12.802;2023-05-10T03:04:17;2.13;;;1.77;;
76115;SDS011;64847;45.778;12.802;2023-05-10T03:06:42;1.90;;;1.60;;
76115;SDS011;64847;45.778;12.802;2023-05-10T03:09:08;1.90;;;1.80;;
76115;SDS011;64847;45.778;12.802;2023-05-10T03:14:23;1.80;;;1.70;;
76115;SDS011;64847;45.778;12.802;2023-05-10T03:16:59;1.87;;;1.83;;
76115;SDS011;64847;45.778;12.802;2023-05-10T03:19:40;1.70;;;1.70;;
76115;SDS011;64847;45.778;12.802;2023-05-10T03:22:10;2.00;;;1.90;;
76115;SDS011;64847;45.778;12.802;2023-05-10T03:24:35;1.93;;;1.83;;
76115;SDS011;64847;45.778;12.802;2023-05-10T03:27:01;1.70;;;1.70;;
76115;SDS011;64847;45.778;12.802;2023-05-10T03:29:29;1.70;;;1.60;;
76115;SDS011;64847;45.778;12.802;2023-05-10T03:31:57;1.73;;;1.63;;
76115;SDS011;64847;45.778;12.802;2023-05-10T03:34:23;1.67;;;1.63;;
76115;SDS011;64847;45.778;12.802;2023-05-10T03:36:49;1.50;;;1.50;;
76115;SDS011;64847;45.778;12.802;2023-05-10T03:39:14;1.67;;;1.67;;
76115;SDS011;64847;45.778;12.802;2023-05-10T03:41:40;1.80;;;1.70;;
76115;SDS011;64847;45.778;12.802;2023-05-10T03:44:06;1.70;;;1.60;;
76115;SDS011;64847;45.778;12.802;2023-05-10T03:46:31;1.93;;;1.83;;
76115;SDS011;64847;45.778;12.802;2023-05-10T03:48:57;1.77;;;1.70;;
76115;SDS011;64847;45.778;12.802;2023-05-10T03:51:22;1.80;;;1.70;;
76115;SDS011;64847;45.778;12.802;2023-05-10T03:53:49;1.80;;;1.60;;
76115;SDS011;64847;45.778;12.802;2023-05-10T03:56:14;2.00;;;1.90;;
76115;SDS011;64847;45.778;12.802;2023-05-10T03:58:40;2.00;;;1.90;;
76115;SDS011;64847;45.778;12.802;2023-05-10T04:01:05;2.00;;;1.90;;
76115;SDS011;64847;45.778;12.802;2023-05-10T04:03:31;1.90;;;1.80;;
76115;SDS011;64847;45.778;12.802;2023-05-10T04:06:00;2.00;;;1.90;;
76115;SDS011;64847;45.778;12.802;2023-05-10T04:08:26;1.93;;;1.83;;
76115;SDS011;64847;45.778;12.802;2023-05-10T04:10:51;1.80;;;1.70;;
76115;SDS011;64847;45.778;12.802;2023-05-10T04:13:16;1.63;;;1.57;;
76115;SDS011;64847;45.778;12.802;2023-05-10T04:15:42;2.00;;;1.90;;
76115;SDS011;64847;45.778;12.802;2023-05-10T04:18:08;1.90;;;1.80;;
76115;SDS011;64847;45.778;12.802;2023-05-10T04:20:33;2.00;;;1.90;;
76115;SDS011;64847;45.778;12.802;2023-05-10T04:22:59;1.77;;;1.77;;
76115;SDS011;64847;45.778;12.802;2023-05-10T04:25:24;1.67;;;1.60;;
76115;SDS011;64847;45.778;12.802;2023-05-10T04:27:50;2.07;;;1.97;;
76115;SDS011;64847;45.778;12.802;2023-05-10T04:30:15;2.20;;;2.10;;
76115;SDS011;64847;45.778;12.802;2023-05-10T04:32:41;3.07;;;1.97;;
76115;SDS011;64847;45.778;12.802;2023-05-10T04:35:06;1.80;;;1.70;;
76115;SDS011;64847;45.778;12.802;2023-05-10T04:37:32;1.90;;;1.80;;
76115;SDS011;64847;45.778;12.802;2023-05-10T04:39:57;1.90;;;1.80;;
76115;SDS011;64847;45.778;12.802;2023-05-10T04:42:24;1.93;;;1.83;;
76115;SDS011;64847;45.778;12.802;2023-05-10T04:44:50;2.00;;;1.80;;
76115;SDS011;64847;45.778;12.802;2023-05-10T04:47:16;1.90;;;1.80;;
76115;SDS011;64847;45.778;12.802;2023-05-10T04:49:42;1.73;;;1.63;;
76115;SDS011;64847;45.778;12.802;2023-05-10T04:52:07;2.30;;;2.17;;
76115;SDS011;64847;45.778;12.802;2023-05-10T04:54:32;2.20;;;2.10;;
76115;SDS011;64847;45.778;12.802;2023-05-10T04:56:58;2.13;;;2.03;;
76115;SDS011;64847;45.778;12.802;2023-05-10T04:59:23;2.37;;;1.90;;
76115;SDS011;64847;45.778;12.802;2023-05-10T05:01:49;2.10;;;2.00;;
76115;SDS011;64847;45.778;12.802;2023-05-10T05:04:14;2.10;;;2.00;;
76115;SDS011;64847;45.778;12.802;2023-05-10T05:06:39;2.00;;;1.90;;
76115;SDS011;64847;45.778;12.802;2023-05-10T05:09:05;1.83;;;1.73;;
76115;SDS011;64847;45.778;12.802;2023-05-10T05:11:30;2.90;;;2.07;;
76115;SDS011;64847;45.778;12.802;2023-05-10T05:13:56;2.23;;;2.13;;
76115;SDS011;64847;45.778;12.802;2023-05-10T05:16:23;1.90;;;1.80;;
76115;SDS011;64847;45.778;12.802;2023-05-10T05:18:49;1.93;;;1.73;;
76115;SDS011;64847;45.778;12.802;2023-05-10T05:21:15;2.10;;;1.90;;
76115;SDS011;64847;45.778;12.802;2023-05-10T05:23:41;2.07;;;1.93;;
76115;SDS011;64847;45.778;12.802;2023-05-10T05:26:06;2.00;;;1.90;;
76115;SDS011;64847;45.778;12.802;2023-05-10T05:28:32;2.93;;;2.07;;
76115;SDS011;64847;45.778;12.802;2023-05-10T05:30:59;1.80;;;1.70;;
76115;SDS011;64847;45.778;12.802;2023-05-10T05:33:25;2.50;;;2.30;;
76115;SDS011;64847;45.778;12.802;2023-05-10T05:35:50;2.30;;;2.20;;
76115;SDS011;64847;45.778;12.802;2023-05-10T05:38:16;2.30;;;1.80;;
76115;SDS011;64847;45.778;12.802;2023-05-10T05:40:42;2.17;;;2.00;;
76115;SDS011;64847;45.778;12.802;2023-05-10T05:43:07;2.10;;;2.00;;
76115;SDS011;64847;45.778;12.802;2023-05-10T05:45:33;2.10;;;1.87;;
76115;SDS011;64847;45.778;12.802;2023-05-10T05:47:58;2.43;;;2.23;;
76115;SDS011;64847;45.778;12.802;2023-05-10T05:50:23;2.00;;;1.90;;
76115;SDS011;64847;45.778;12.802;2023-05-10T05:52:49;2.00;;;1.90;;
76115;SDS011;64847;45.778;12.802;2023-05-10T05:55:15;2.50;;;2.40;;
76115;SDS011;64847;45.778;12.802;2023-05-10T05:57:40;2.47;;;2.13;;
76115;SDS011;64847;45.778;12.802;2023-05-10T06:00:06;2.73;;;1.87;;
76115;SDS011;64847;45.778;12.802;2023-05-10T06:02:31;2.40;;;2.20;;
76115;SDS011;64847;45.778;12.802;2023-05-10T06:04:57;2.30;;;2.10;;
76115;SDS011;64847;45.778;12.802;2023-05-10T06:07:22;2.47;;;2.27;;
76115;SDS011;64847;45.778;12.802;2023-05-10T06:09:48;2.20;;;2.10;;
76115;SDS011;64847;45.778;12.802;2023-05-10T06:12:13;2.70;;;2.20;;
76115;SDS011;64847;45.778;12.802;2023-05-10T06:14:38;2.43;;;2.33;;
76115;SDS011;64847;45.778;12.802;2023-05-10T06:17:04;2.43;;;1.97;;
76115;SDS011;64847;45.778;12.802;2023-05-10T06:19:30;2.57;;;2.37;;
76115;SDS011;64847;45.778;12.802;2023-05-10T06:21:55;2.60;;;2.40;;
76115;SDS011;64847;45.778;12.802;2023-05-10T06:24:21;2.07;;;1.97;;
76115;SDS011;64847;45.778;12.802;2023-05-10T06:26:46;2.00;;;1.90;;
76115;SDS011;64847;45.778;12.802;2023-05-10T06:29:12;1.90;;;1.80;;
76115;SDS011;64847;45.778;12.802;2023-05-10T06:31:37;2.43;;;2.33;;
76115;SDS011;64847;45.778;12.802;2023-05-10T06:34:03;4.17;;;3.13;;
76115;SDS011;64847;45.778;12.802;2023-05-10T06:36:28;2.67;;;2.37;;
76115;SDS011;64847;45.778;12.802;2023-05-10T06:38:53;2.60;;;2.40;;
76115;SDS011;64847;45.778;12.802;2023-05-10T06:41:19;2.30;;;2.20;;
76115;SDS011;64847;45.778;12.802;2023-05-10T06:43:44;2.83;;;2.60;;
76115;SDS011;64847;45.778;12.802;2023-05-10T06:46:09;5.13;;;3.43;;
76115;SDS011;64847;45.778;12.802;2023-05-10T06:48:35;3.03;;;2.73;;
76115;SDS011;64847;45.778;12.802;2023-05-10T06:51:00;2.87;;;2.67;;
76115;SDS011;64847;45.778;12.802;2023-05-10T06:53:26;2.50;;;2.30;;
76115;SDS011;64847;45.778;12.802;2023-05-10T06:55:51;2.30;;;2.20;;
76115;SDS011;64847;45.778;12.802;2023-05-10T06:58:17;2.97;;;2.70;;
76115;SDS011;64847;45.778;12.802;2023-05-10T07:00:42;4.00;;;2.50;;
76115;SDS011;64847;45.778;12.802;2023-05-10T07:03:09;2.67;;;2.47;;
76115;SDS011;64847;45.778;12.802;2023-05-10T07:05:35;2.57;;;2.37;;
76115;SDS011;64847;45.778;12.802;2023-05-10T07:08:00;3.23;;;2.67;;
76115;SDS011;64847;45.778;12.802;2023-05-10T07:10:26;2.80;;;2.60;;
76115;SDS011;64847;45.778;12.802;2023-05-10T07:12:51;4.60;;;2.57;;
76115;SDS011;64847;45.778;12.802;2023-05-10T07:15:17;3.80;;;2.47;;
76115;SDS011;64847;45.778;12.802;2023-05-10T07:17:42;1.97;;;1.87;;
76115;SDS011;64847;45.778;12.802;2023-05-10T07:20:08;2.57;;;2.37;;
76115;SDS011;64847;45.778;12.802;2023-05-10T07:22:33;2.50;;;2.40;;
76115;SDS011;64847;45.778;12.802;2023-05-10T07:24:59;2.90;;;2.70;;
76115;SDS011;64847;45.778;12.802;2023-05-10T07:27:24;2.50;;;2.30;;
76115;SDS011;64847;45.778;12.802;2023-05-10T07:29:50;2.80;;;2.57;;
76115;SDS011;64847;45.778;12.802;2023-05-10T07:32:15;3.63;;;2.80;;
76115;SDS011;64847;45.778;12.802;2023-05-10T07:34:41;3.20;;;2.80;;
76115;SDS011;64847;45.778;12.802;2023-05-10T07:37:06;3.80;;;3.20;;
76115;SDS011;64847;45.778;12.802;2023-05-10T07:39:32;2.93;;;2.67;;
76115;SDS011;64847;45.778;12.802;2023-05-10T07:41:57;3.07;;;2.70;;
76115;SDS011;64847;45.778;12.802;2023-05-10T07:44:23;2.90;;;2.73;;
76115;SDS011;64847;45.778;12.802;2023-05-10T07:46:48;3.20;;;2.90;;
76115;SDS011;64847;45.778;12.802;2023-05-10T07:49:14;2.57;;;2.47;;
76115;SDS011;64847;45.778;12.802;2023-05-10T07:51:39;2.50;;;2.40;;
76115;SDS011;64847;45.778;12.802;2023-05-10T07:54:05;2.60;;;2.40;;
76115;SDS011;64847;45.778;12.802;2023-05-10T07:56:31;2.90;;;2.70;;
76115;SDS011;64847;45.778;12.802;2023-05-10T07:58:58;2.83;;;2.73;;
76115;SDS011;64847;45.778;12.802;2023-05-10T08:01:23;3.03;;;2.63;;
76115;SDS011;64847;45.778;12.802;2023-05-10T08:03:49;3.40;;;3.10;;
76115;SDS011;64847;45.778;12.802;2023-05-10T08:06:16;3.90;;;2.80;;
76115;SDS011;64847;45.778;12.802;2023-05-10T08:08:43;2.97;;;2.77;;
76115;SDS011;64847;45.778;12.802;2023-05-10T08:11:08;3.13;;;2.83;;
76115;SDS011;64847;45.778;12.802;2023-05-10T08:13:34;2.90;;;2.70;;
76115;SDS011;64847;45.778;12.802;2023-05-10T08:15:59;3.13;;;2.83;;
76115;SDS011;64847;45.778;12.802;2023-05-10T08:18:25;2.97;;;2.87;;
76115;SDS011;64847;45.778;12.802;2023-05-10T08:20:51;3.00;;;2.80;;
76115;SDS011;64847;45.778;12.802;2023-05-10T08:23:16;2.63;;;2.53;;
76115;SDS011;64847;45.778;12.802;2023-05-10T08:25:41;2.97;;;2.47;;
76115;SDS011;64847;45.778;12.802;2023-05-10T08:28:07;3.17;;;2.97;;
76115;SDS011;64847;45.778;12.802;2023-05-10T08:30:32;2.90;;;2.70;;
76115;SDS011;64847;45.778;12.802;2023-05-10T08:32:57;3.00;;;2.80;;
76115;SDS011;64847;45.778;12.802;2023-05-10T08:35:23;3.07;;;2.87;;
76115;SDS011;64847;45.778;12.802;2023-05-10T08:37:50;3.30;;;3.00;;
76115;SDS011;64847;45.778;12.802;2023-05-10T08:40:16;3.07;;;2.83;;
76115;SDS011;64847;45.778;12.802;2023-05-10T08:42:43;5.90;;;2.80;;
76115;SDS011;64847;45.778;12.802;2023-05-10T08:45:32;2.43;;;2.33;;
76115;SDS011;64847;45.778;12.802;2023-05-10T08:47:59;3.40;;;3.10;;
76115;SDS011;64847;45.778;12.802;2023-05-10T08:50:26;3.00;;;2.80;;
76115;SDS011;64847;45.778;12.802;2023-05-10T08:52:52;3.60;;;2.90;;
76115;SDS011;64847;45.778;12.802;2023-05-10T08:55:21;3.27;;;2.97;;
76115;SDS011;64847;45.778;12.802;2023-05-10T08:57:48;3.23;;;3.03;;
76115;SDS011;64847;45.778;12.802;2023-05-10T09:00:14;3.90;;;3.60;;
76115;SDS011;64847;45.778;12.802;2023-05-10T09:02:40;3.47;;;3.27;;
76115;SDS011;64847;45.778;12.802;2023-05-10T09:05:07;3.57;;;3.37;;
76115;SDS011;64847;45.778;12.802;2023-05-10T09:07:33;3.30;;;3.00;;
76115;SDS011;64847;45.778;12.802;2023-05-10T09:09:58;3.30;;;3.07;;
76115;SDS011;64847;45.778;12.802;2023-05-10T09:12:24;2.97;;;2.67;;
76115;SDS011;64847;45.778;12.802;2023-05-10T09:14:50;2.80;;;2.60;;
76115;SDS011;64847;45.778;12.802;2023-05-10T09:17:15;3.03;;;2.83;;
76115;SDS011;64847;45.778;12.802;2023-05-10T09:19:41;3.10;;;2.90;;
76115;SDS011;64847;45.778;12.802;2023-05-10T09:22:06;3.67;;;2.93;;
76115;SDS011;64847;45.778;12.802;2023-05-10T09:24:32;3.10;;;2.90;;
76115;SDS011;64847;45.778;12.802;2023-05-10T09:26:57;2.50;;;2.40;;
76115;SDS011;64847;45.778;12.802;2023-05-10T09:29:26;3.20;;;3.00;;
76115;SDS011;64847;45.778;12.802;2023-05-10T09:31:51;3.50;;;3.30;;
76115;SDS011;64847;45.778;12.802;2023-05-10T09:34:30;3.40;;;3.20;;
76115;SDS011;64847;45.778;12.802;2023-05-10T09:36:59;3.10;;;2.90;;
76115;SDS011;64847;45.778;12.802;2023-05-10T09:39:34;3.13;;;2.93;;
76115;SDS011;64847;45.778;12.802;2023-05-10T09:42:07;3.30;;;3.10;;
76115;SDS011;64847;45.778;12.802;2023-05-10T09:44:34;3.30;;;3.00;;
76115;SDS011;64847;45.778;12.802;2023-05-10T09:47:03;3.53;;;3.33;;
76115;SDS011;64847;45.778;12.802;2023-05-10T09:49:28;3.30;;;3.10;;
76115;SDS011;64847;45.778;12.802;2023-05-10T09:52:01;3.80;;;3.50;;
76115;SDS011;64847;45.778;12.802;2023-05-10T09:54:28;3.70;;;3.50;;
76115;SDS011;64847;45.778;12.802;2023-05-10T09:56:54;3.50;;;3.20;;
76115;SDS011;64847;45.778;12.802;2023-05-10T09:59:20;3.60;;;3.40;;
76115;SDS011;64847;45.778;12.802;2023-05-10T10:01:51;3.60;;;3.40;;
76115;SDS011;64847;45.778;12.802;2023-05-10T10:04:17;3.30;;;3.10;;
76115;SDS011;64847;45.778;12.802;2023-05-10T10:06:45;3.27;;;2.70;;
76115;SDS011;64847;45.778;12.802;2023-05-10T10:09:10;3.40;;;3.10;;
76115;SDS011;64847;45.778;12.802;2023-05-10T10:11:36;3.80;;;3.40;;
76115;SDS011;64847;45.778;12.802;2023-05-10T10:14:03;3.20;;;3.00;;
76115;SDS011;64847;45.778;12.802;2023-05-10T10:16:29;3.27;;;3.07;;
76115;SDS011;64847;45.778;12.802;2023-05-10T10:18:55;3.57;;;3.27;;
76115;SDS011;64847;45.778;12.802;2023-05-10T10:21:22;4.37;;;3.23;;
76115;SDS011;64847;45.778;12.802;2023-05-10T10:23:48;3.37;;;3.17;;
76115;SDS011;64847;45.778;12.802;2023-05-10T10:26:13;3.20;;;3.00;;
76115;SDS011;64847;45.778;12.802;2023-05-10T10:31:45;3.30;;;3.10;;
76115;SDS011;64847;45.778;12.802;2023-05-10T10:34:25;3.50;;;3.30;;
76115;SDS011;64847;45.778;12.802;2023-05-10T10:36:53;3.90;;;3.60;;
76115;SDS011;64847;45.778;12.802;2023-05-10T10:39:19;3.97;;;3.67;;
76115;SDS011;64847;45.778;12.802;2023-05-10T10:41:52;3.63;;;3.43;;
76115;SDS011;64847;45.778;12.802;2023-05-10T10:47:02;4.43;;;4.13;;
76115;SDS011;64847;45.778;12.802;2023-05-10T10:52:13;4.17;;;3.87;;
76115;SDS011;64847;45.778;12.802;2023-05-10T10:54:52;3.87;;;3.57;;
76115;SDS011;64847;45.778;12.802;2023-05-10T10:57:19;3.80;;;3.60;;
76115;SDS011;64847;45.778;12.802;2023-05-10T10:59:48;3.87;;;3.57;;
76115;SDS011;64847;45.778;12.802;2023-05-10T11:02:33;4.33;;;3.83;;
76115;SDS011;64847;45.778;12.802;2023-05-10T11:07:58;3.90;;;3.60;;
76115;SDS011;64847;45.778;12.802;2023-05-10T11:10:24;3.80;;;3.60;;
76115;SDS011;64847;45.778;12.802;2023-05-10T11:12:51;4.13;;;3.83;;
76115;SDS011;64847;45.778;12.802;2023-05-10T11:15:47;3.63;;;3.33;;
76115;SDS011;64847;45.778;12.802;2023-05-10T11:20:59;4.63;;;4.27;;
76115;SDS011;64847;45.778;12.802;2023-05-10T11:23:31;3.97;;;3.77;;
76115;SDS011;64847;45.778;12.802;2023-05-10T11:25:58;4.70;;;4.40;;
76115;SDS011;64847;45.778;12.802;2023-05-10T11:28:25;4.80;;;4.50;;
76115;SDS011;64847;45.778;12.802;2023-05-10T11:30:51;4.70;;;4.40;;
76115;SDS011;64847;45.778;12.802;2023-05-10T11:33:17;4.27;;;3.97;;
76115;SDS011;64847;45.778;12.802;2023-05-10T11:35:44;4.80;;;4.40;;
76115;SDS011;64847;45.778;12.802;2023-05-10T11:38:10;4.77;;;4.37;;
76115;SDS011;64847;45.778;12.802;2023-05-10T11:40:37;4.77;;;4.40;;
76115;SDS011;64847;45.778;12.802;2023-05-10T11:43:03;4.47;;;4.07;;
76115;SDS011;64847;45.778;12.802;2023-05-10T11:45:32;4.80;;;4.40;;
76115;SDS011;64847;45.778;12.802;2023-05-10T11:47:58;4.63;;;4.30;;
76115;SDS011;64847;45.778;12.802;2023-05-10T11:50:24;5.17;;;4.67;;
76115;SDS011;64847;45.778;12.802;2023-05-10T11:52:57;4.67;;;4.37;;
76115;SDS011;64847;45.778;12.802;2023-05-10T11:55:23;4.87;;;4.37;;
76115;SDS011;64847;45.778;12.802;2023-05-10T11:57:52;4.73;;;4.33;;
76115;SDS011;64847;45.778;12.802;2023-05-10T12:00:18;4.93;;;4.57;;
76115;SDS011;64847;45.778;12.802;2023-05-10T12:02:44;4.93;;;4.50;;
76115;SDS011;64847;45.778;12.802;2023-05-10T12:05:10;4.73;;;4.43;;
76115;SDS011;64847;45.778;12.802;2023-05-10T12:07:35;4.90;;;4.60;;
76115;SDS011;64847;45.778;12.802;2023-05-10T12:10:08;5.07;;;4.57;;
76115;SDS011;64847;45.778;12.802;2023-05-10T12:12:41;4.50;;;4.20;;
76115;SDS011;64847;45.778;12.802;2023-05-10T12:15:18;5.23;;;4.83;;
76115;SDS011;64847;45.778;12.802;2023-05-10T12:17:45;5.03;;;4.73;;
76115;SDS011;64847;45.778;12.802;2023-05-10T12:20:21;5.30;;;4.80;;
76115;SDS011;64847;45.778;12.802;2023-05-10T12:25:20;4.60;;;4.30;;
76115;SDS011;64847;45.778;12.802;2023-05-10T12:27:56;4.80;;;4.40;;
76115;SDS011;64847;45.778;12.802;2023-05-10T12:32:49;5.20;;;4.70;;
76115;SDS011;64847;45.778;12.802;2023-05-10T12:35:14;5.00;;;4.60;;
76115;SDS011;64847;45.778;12.802;2023-05-10T12:37:41;4.73;;;4.43;;
76115;SDS011;64847;45.778;12.802;2023-05-10T12:40:10;5.33;;;4.93;;
76115;SDS011;64847;45.778;12.802;2023-05-10T12:42:36;4.97;;;4.57;;
76115;SDS011;64847;45.778;12.802;2023-05-10T12:45:02;4.27;;;3.87;;
76115;SDS011;64847;45.778;12.802;2023-05-10T12:47:28;4.20;;;3.90;;
76115;SDS011;64847;45.778;12.802;2023-05-10T12:49:54;5.30;;;4.80;;
76115;SDS011;64847;45.778;12.802;2023-05-10T12:52:20;7.33;;;4.03;;
76115;SDS011;64847;45.778;12.802;2023-05-10T12:54:45;5.87;;;3.93;;
76115;SDS011;64847;45.778;12.802;2023-05-10T12:57:11;6.53;;;5.17;;
76115;SDS011;64847;45.778;12.802;2023-05-10T12:59:37;7.10;;;4.43;;
76115;SDS011;64847;45.778;12.802;2023-05-10T13:02:02;5.37;;;4.80;;
76115;SDS011;64847;45.778;12.802;2023-05-10T13:04:28;5.03;;;4.40;;
76115;SDS011;64847;45.778;12.802;2023-05-10T13:06:53;6.87;;;4.53;;
76115;SDS011;64847;45.778;12.802;2023-05-10T13:09:23;5.27;;;4.20;;
76115;SDS011;64847;45.778;12.802;2023-05-10T13:11:48;4.60;;;4.20;;
76115;SDS011;64847;45.778;12.802;2023-05-10T13:14:14;4.40;;;3.97;;
76115;SDS011;64847;45.778;12.802;2023-05-10T13:16:39;4.47;;;4.00;;
76115;SDS011;64847;45.778;12.802;2023-05-10T13:19:05;3.70;;;3.40;;
76115;SDS011;64847;45.778;12.802;2023-05-10T13:21:30;5.23;;;4.10;;
76115;SDS011;64847;45.778;12.802;2023-05-10T13:23:56;4.73;;;4.23;;
76115;SDS011;64847;45.778;12.802;2023-05-10T13:26:21;5.70;;;3.70;;
76115;SDS011;64847;45.778;12.802;2023-05-10T13:28:46;6.03;;;4.28;;
76115;SDS011;64847;45.778;12.802;2023-05-10T13:31:13;3.90;;;3.60;;
76115;SDS011;64847;45.778;12.802;2023-05-10T13:33:39;4.85;;;3.92;;
76115;SDS011;64847;45.778;12.802;2023-05-10T13:36:04;4.65;;;4.25;;
76115;SDS011;64847;45.778;12.802;2023-05-10T13:38:31;4.05;;;3.70;;
76115;SDS011;64847;45.778;12.802;2023-05-10T13:40:56;3.58;;;3.28;;
76115;SDS011;64847;45.778;12.802;2023-05-10T13:43:21;4.05;;;3.65;;
76115;SDS011;64847;45.778;12.802;2023-05-10T13:45:47;4.10;;;3.80;;
76115;SDS011;64847;45.778;12.802;2023-05-10T13:48:12;3.90;;;3.50;;
76115;SDS011;64847;45.778;12.802;2023-05-10T13:50:37;3.97;;;3.67;;
76115;SDS011;64847;45.778;12.802;2023-05-10T13:53:03;3.90;;;3.60;;
76115;SDS011;64847;45.778;12.802;2023-05-10T13:55:28;4.20;;;3.80;;
76115;SDS011;64847;45.778;12.802;2023-05-10T13:57:54;4.10;;;3.78;;
76115;SDS011;64847;45.778;12.802;2023-05-10T14:00:19;4.63;;;4.07;;
76115;SDS011;64847;45.778;12.802;2023-05-10T14:02:45;4.70;;;4.40;;
76115;SDS011;64847;45.778;12.802;2023-05-10T14:05:10;4.53;;;4.23;;
76115;SDS011;64847;45.778;12.802;2023-05-10T14:07:35;4.50;;;4.20;;
76115;SDS011;64847;45.778;12.802;2023-05-10T14:10:01;5.00;;;4.53;;
76115;SDS011;64847;45.778;12.802;2023-05-10T14:12:27;5.03;;;4.67;;
76115;SDS011;64847;45.778;12.802;2023-05-10T14:14:52;5.17;;;4.87;;
76115;SDS011;64847;45.778;12.802;2023-05-10T14:17:18;4.87;;;4.57;;
76115;SDS011;64847;45.778;12.802;2023-05-10T14:19:43;5.57;;;5.07;;
76115;SDS011;64847;45.778;12.802;2023-05-10T14:22:08;4.90;;;4.60;;
76115;SDS011;64847;45.778;12.802;2023-05-10T14:24:34;5.47;;;4.97;;
76115;SDS011;64847;45.778;12.802;2023-05-10T14:26:59;5.80;;;5.40;;
76115;SDS011;64847;45.778;12.802;2023-05-10T14:29:25;5.50;;;5.10;;
76115;SDS011;64847;45.778;12.802;2023-05-10T14:31:50;5.67;;;5.03;;
76115;SDS011;64847;45.778;12.802;2023-05-10T14:34:16;5.43;;;5.03;;
76115;SDS011;64847;45.778;12.802;2023-05-10T14:36:41;5.83;;;5.13;;
76115;SDS011;64847;45.778;12.802;2023-05-10T14:39:06;5.60;;;5.20;;
76115;SDS011;64847;45.778;12.802;2023-05-10T14:41:32;6.10;;;5.60;;
76115;SDS011;64847;45.778;12.802;2023-05-10T14:43:58;5.67;;;5.27;;
76115;SDS011;64847;45.778;12.802;2023-05-10T14:46:23;6.00;;;5.60;;
76115;SDS011;64847;45.778;12.802;2023-05-10T14:48:49;7.03;;;6.53;;
76115;SDS011;64847;45.778;12.802;2023-05-10T14:51:14;6.33;;;5.93;;
76115;SDS011;64847;45.778;12.802;2023-05-10T14:53:39;7.23;;;6.63;;
76115;SDS011;64847;45.778;12.802;2023-05-10T14:56:05;7.03;;;6.53;;
76115;SDS011;64847;45.778;12.802;2023-05-10T14:58:31;6.97;;;6.10;;
76115;SDS011;64847;45.778;12.802;2023-05-10T15:00:56;6.77;;;6.10;;
76115;SDS011;64847;45.778;12.802;2023-05-10T15:03:22;6.97;;;6.37;;
76115;SDS011;64847;45.778;12.802;2023-05-10T15:05:47;6.90;;;6.30;;